Time;durP1;ratioP1;P1;durP2;ratioP2;P2;SDS_P1;SDS_P2;PMS_P1;PMS_P2;Temp;Humidity;BMP_temperature;BMP_pressure;BME280_temperature;BME280_humidity;BME280_pressure;Samples;Min_cycle;Max_cycle;Signal;HPM_P1;HPM_P2
2022/01/16 00:00:28;;;;;;;;;;;;;;;-4.10;86.77;98676.47;10411950;28;20064;-58
2022/01/16 00:05:29;;;;;;;169.15;91.20;;;;;;;-4.11;86.63;98657.88;10405678;28;19952;-58
2022/01/16 00:10:28;;;;;;;229.95;126.03;;;;;;;-4.18;86.29;98637.94;10411860;28;20421;-58
2022/01/16 00:15:27;;;;;;;;;;;;;;;-4.16;86.93;98661.72;10405187;28;20503;-58
2022/01/16 00:20:27;;;;;;;220.20;108.50;;;;;;;-4.20;85.82;98673.28;10381339;28;20307;-58
2022/01/16 00:25:26;;;;;;;198.73;104.00;;;;;;;-4.22;86.68;98700.16;10413866;28;20056;-58
2022/01/16 00:30:25;;;;;;;192.55;102.68;;;;;;;-4.29;86.88;98718.25;10391072;28;20049;-58
2022/01/16 00:35:25;;;;;;;218.77;113.30;;;;;;;-4.30;86.51;98778.94;10394059;28;20491;-57
2022/01/16 00:40:24;;;;;;;187.32;95.68;;;;;;;-4.27;86.90;98650.81;10408583;28;20055;-57
2022/01/16 00:45:24;;;;;;;188.15;100.20;;;;;;;-4.29;86.32;98637.16;10411375;28;20085;-57
2022/01/16 00:50:23;;;;;;;230.32;120.45;;;;;;;-4.49;87.24;98617.13;10408729;28;20052;-57
2022/01/16 00:55:22;;;;;;;;;;;;;;;-4.56;86.80;98521.22;10410258;28;20067;-57
2022/01/16 01:00:21;;;;;;;142.80;77.00;;;;;;;-4.70;86.76;98537.97;10408014;28;19920;-57
2022/01/16 01:05:20;;;;;;;137.35;74.50;;;;;;;-4.79;86.98;98611.63;10409113;28;20085;-57
2022/01/16 01:10:19;;;;;;;137.13;73.55;;;;;;;-4.70;86.60;98626.59;10409198;28;20086;-57
2022/01/16 01:15:29;;;;;;;131.55;72.22;;;;;;;-4.71;86.68;98640.03;10411086;28;20048;-57
2022/01/16 01:20:28;;;;;;;;;;;;;;;-4.73;86.06;98626.38;10402592;28;20115;-57
2022/01/16 01:25:26;;;;;;;150.57;78.75;;;;;;;-4.79;85.74;98629.34;10380959;28;19909;-57
2022/01/16 01:30:25;;;;;;;258.13;127.55;;;;;;;-4.93;86.50;98627.47;10399208;28;20131;-57
2022/01/16 01:35:25;;;;;;;;;;;;;;;-4.91;86.22;98642.00;10421655;28;20064;-57
2022/01/16 01:40:25;;;;;;;153.18;80.65;;;;;;;-4.89;87.32;98672.47;10417136;28;20322;-57
2022/01/16 01:51:06;;;;;;;145.57;77.57;;;;;;;-4.97;86.19;98671.91;10397040;28;20056;-57
2022/01/16 01:56:07;;;;;;;138.57;73.05;;;;;;;-4.98;86.26;98672.69;10378814;28;20052;-57
2022/01/16 02:01:06;;;;;;;146.25;79.50;;;;;;;-4.99;86.86;98692.81;10396512;28;20859;-57
2022/01/16 02:06:06;;;;;;;168.07;86.18;;;;;;;-4.99;86.01;98672.56;10419394;28;20590;-57
2022/01/16 02:11:05;;;;;;;152.82;79.15;;;;;;;-5.04;85.56;98675.63;10415224;28;20068;-57
2022/01/16 02:31:41;;;;;;;117.45;60.28;;;;;;;-5.22;85.82;98674.25;10418091;28;20087;-57
2022/01/16 02:36:47;;;;;;;121.07;61.45;;;;;;;-5.25;87.20;98679.09;10416636;28;20491;-57
2022/01/16 02:41:47;;;;;;;118.43;62.05;;;;;;;-5.21;87.21;98655.78;10379401;28;20076;-57
2022/01/16 02:46:46;;;;;;;139.13;74.68;;;;;;;-5.24;85.71;98665.66;10395541;28;20071;-57
2022/01/16 02:51:46;;;;;;;146.13;77.38;;;;;;;-5.28;86.45;98658.63;10418020;28;20068;-57
2022/01/16 02:56:45;;;;;;;141.55;74.72;;;;;;;-5.34;86.90;98653.09;10413343;28;20835;-57
2022/01/16 03:01:44;;;;;;;;;;;;;;;-5.42;87.19;98644.94;10389118;28;20064;-57
2022/01/16 03:06:43;;;;;;;183.70;92.90;;;;;;;-5.44;87.01;98650.66;10383604;28;19947;-57
2022/01/16 03:11:47;;;;;;;;;;;;;;;-5.47;86.34;98652.19;10415853;28;20064;-57
2022/01/16 03:16:50;;;;;;;169.52;88.32;;;;;;;-5.52;86.66;98655.09;10393019;28;19947;-57
2022/01/16 03:21:55;;;;;;;158.45;84.47;;;;;;;-5.55;87.53;98660.81;10392953;28;20067;-57
2022/01/16 03:26:56;;;;;;;177.85;89.18;;;;;;;-5.60;87.30;98666.31;10416503;28;20071;-57
2022/01/16 03:31:57;;;;;;;150.75;77.88;;;;;;;-5.59;86.65;98661.38;10414952;28;20467;-57
2022/01/16 03:36:57;;;;;;;141.55;70.90;;;;;;;-5.63;86.36;98655.97;10378266;28;20064;-57
2022/01/16 03:41:58;;;;;;;135.27;67.88;;;;;;;-5.66;86.14;98664.16;10374073;28;20076;-57
2022/01/16 03:46:57;;;;;;;124.57;64.75;;;;;;;-5.66;86.90;98686.91;10396395;28;20140;-57
2022/01/16 03:51:57;;;;;;;;;;;;;;;-5.65;86.65;98682.78;10413340;28;20083;-57
2022/01/16 03:56:57;;;;;;;192.48;95.97;;;;;;;-5.69;87.07;98674.06;10413450;28;19947;-57
2022/01/16 04:01:56;;;;;;;177.20;89.95;;;;;;;-5.85;86.48;98688.81;10414569;28;20071;-57
2022/01/16 04:06:55;;;;;;;132.10;68.80;;;;;;;-5.86;86.14;98692.09;10414257;28;20028;-57
2022/01/16 04:11:56;;;;;;;;;;;;;;;-5.88;87.08;98687.78;10415108;28;20068;-57
2022/01/16 04:16:56;;;;;;;131.98;65.03;;;;;;;-5.95;86.13;98695.66;10413115;28;19940;-57
2022/01/16 04:21:55;;;;;;;151.63;73.82;;;;;;;-6.07;87.01;98707.34;10414793;28;20060;-57
2022/01/16 04:26:54;;;;;;;;;;;;;;;-6.03;86.16;98711.88;10414161;28;20040;-57
2022/01/16 04:31:53;;;;;;;113.00;56.22;;;;;;;-6.02;86.43;98717.81;10409912;28;20623;-57
2022/01/16 04:36:52;;;;;;;138.50;68.40;;;;;;;-6.04;86.20;98714.28;10413815;28;20075;-57
2022/01/16 04:47:08;;;;;;;159.18;81.85;;;;;;;-6.07;86.47;98714.91;10413889;28;19959;-57
2022/01/16 04:52:07;;;;;;;;;;;;;;;-6.10;86.21;98709.63;10412894;28;20052;-57
2022/01/16 04:57:06;;;;;;;220.03;105.77;;;;;;;-6.13;86.78;98696.75;10413699;28;20302;-57
2022/01/16 05:02:05;;;;;;;;;;;;;;;-6.18;86.73;98708.13;10422239;28;20028;-57
2022/01/16 05:07:04;;;;;;;176.50;89.10;;;;;;;-6.19;86.09;98713.97;10420484;28;19978;-57
2022/01/16 05:12:10;;;;;;;240.43;115.18;;;;;;;-6.29;86.87;98712.34;10421747;28;20064;-57
2022/01/16 05:17:09;;;;;;;216.20;103.25;;;;;;;-6.43;86.31;98683.47;10398435;28;20053;-57
2022/01/16 05:22:08;;;;;;;;;;;;;;;-6.40;85.74;98705.56;10401764;28;20445;-57
2022/01/16 05:27:07;;;;;;;150.32;70.13;;;;;;;-6.43;85.39;98712.84;10419384;28;19963;-57
2022/01/16 05:32:06;;;;;;;;;;;;;;;-6.49;85.55;98715.78;10420939;28;20071;-57
2022/01/16 05:37:05;;;;;;;167.27;82.17;;;;;;;-6.52;86.24;98707.97;10419397;28;19908;-56
2022/01/16 05:42:04;;;;;;;;;;;;;;;-6.58;86.26;98710.00;10419793;28;20509;-57
2022/01/16 05:47:04;;;;;;;178.07;87.78;;;;;;;-6.58;86.22;98710.00;10420050;28;19951;-57
2022/01/16 05:52:04;;;;;;;183.63;89.32;;;;;;;-6.54;85.81;98707.84;10405396;28;20063;-56
2022/01/16 05:57:03;;;;;;;183.45;92.22;;;;;;;-6.51;85.93;98714.78;10379814;28;20060;-57
2022/01/16 06:02:03;;;;;;;200.25;96.20;;;;;;;-6.46;85.72;98727.78;10417986;28;20059;-57
2022/01/16 06:07:02;;;;;;;196.75;102.13;;;;;;;-6.55;86.37;98702.66;10415586;28;20059;-57
2022/01/16 06:12:01;;;;;;;224.00;112.50;;;;;;;-6.41;86.05;98727.41;10419411;28;20052;-57
2022/01/16 06:17:00;;;;;;;;;;;;;;;-6.35;85.83;98727.88;10418470;28;20480;-57
2022/01/16 06:21:59;;;;;;;245.93;127.73;;;;;;;-6.31;85.77;98741.66;10419147;28;19951;-57
2022/01/16 06:26:58;;;;;;;;;;;;;;;-6.26;85.67;98731.91;10419142;28;20040;-57
2022/01/16 06:31:57;;;;;;;194.82;96.80;;;;;;;-6.23;86.02;98742.25;10418103;28;19923;-56
2022/01/16 06:36:58;;;;;;;;;;;;;;;-6.21;86.26;98750.84;10417674;28;20045;-57
2022/01/16 06:41:57;;;;;;;200.07;102.53;;;;;;;-6.12;86.08;98756.63;10415210;28;19948;-57
2022/01/16 06:46:56;;;;;;;202.55;110.30;;;;;;;-6.03;86.06;98746.34;10418339;28;20063;-57
2022/01/16 06:51:54;;;;;;;;;;;;;;;-5.92;85.55;98755.66;10416963;28;20027;-57
2022/01/16 06:56:53;;;;;;;216.43;108.93;;;;;;;-5.78;86.43;98759.28;10378338;28;20374;-57
2022/01/16 07:01:52;;;;;;;;;;;;;;;-5.65;85.87;98756.97;10377192;28;20067;-57
2022/01/16 07:06:51;;;;;;;220.23;110.33;;;;;;;-5.52;86.59;98767.28;10401224;28;19919;-57
2022/01/16 07:11:50;;;;;;;166.52;90.50;;;;;;;-5.36;86.04;98770.97;10417613;28;20021;-57
2022/01/16 07:16:49;;;;;;;170.60;92.22;;;;;;;-5.20;86.73;98773.06;10407928;28;20036;-57
2022/01/16 07:21:48;;;;;;;;;;;;;;;-5.10;86.19;98788.16;10393239;28;20075;-57
2022/01/16 07:26:47;;;;;;;256.20;131.43;;;;;;;-5.00;86.06;98784.69;10414293;28;19908;-57
2022/01/16 07:31:46;;;;;;;;;;;;;;;-5.00;87.52;98790.66;10414984;28;20500;-57
2022/01/16 07:36:45;;;;;;;241.55;129.13;;;;;;;-4.90;86.80;98777.91;10415009;28;19913;-57
2022/01/16 07:41:44;;;;;;;238.40;130.23;;;;;;;-4.81;86.33;98782.78;10414220;28;20086;-57
2022/01/16 07:46:43;;;;;;;227.38;123.47;;;;;;;-4.63;86.78;98789.25;10414607;28;20055;-57
2022/01/16 07:51:42;;;;;;;202.10;114.25;;;;;;;-4.59;86.72;98797.06;10413688;28;20029;-57
2022/01/16 07:56:41;;;;;;;191.50;110.43;;;;;;;-4.36;86.86;98797.13;10413778;28;20048;-57
2022/01/16 08:01:40;;;;;;;;;;;;;;;-4.14;86.88;98799.56;10411057;28;20536;-59
2022/01/16 08:06:39;;;;;;;170.68;92.53;;;;;;;-3.96;85.72;98800.03;10402613;28;19959;-57
2022/01/16 08:11:38;;;;;;;167.55;90.30;;;;;;;-3.85;86.29;98785.59;10414046;28;20459;-57
2022/01/16 08:16:37;;;;;;;156.73;83.18;;;;;;;-3.77;86.34;98771.78;10411597;28;20135;-57
2022/01/16 08:21:36;;;;;;;139.75;79.85;;;;;;;-3.62;85.78;98777.97;10410836;28;20033;-57
2022/01/16 08:26:35;;;;;;;121.95;69.07;;;;;;;-3.39;85.67;98779.59;10412027;28;20043;-57
2022/01/16 08:31:34;;;;;;;120.07;64.68;;;;;;;-3.24;84.96;98772.16;10413023;28;20072;-57
2022/01/16 08:36:33;;;;;;;121.57;67.95;;;;;;;-3.22;84.39;98773.16;10412566;28;20128;-57
2022/01/16 08:41:32;;;;;;;118.68;67.95;;;;;;;-3.09;85.14;98751.13;10411832;28;20056;-57
2022/01/16 08:46:32;;;;;;;123.85;72.10;;;;;;;-2.89;85.14;98744.88;10413844;28;20057;-57
2022/01/16 08:51:31;;;;;;;133.30;80.55;;;;;;;-2.76;84.78;98752.53;10401164;28;20448;-57
2022/01/16 08:56:30;;;;;;;119.97;70.07;;;;;;;-2.60;83.01;98749.34;10410108;28;20064;-57
2022/01/16 09:01:30;;;;;;;108.22;63.00;;;;;;;-2.43;82.80;98747.91;10410622;28;20538;-57
2022/01/16 09:06:29;;;;;;;99.05;58.10;;;;;;;-2.33;82.93;98735.06;10406320;28;20052;-57
2022/01/16 09:11:28;;;;;;;105.10;60.30;;;;;;;-2.17;82.64;98727.63;10413206;28;20048;-57
2022/01/16 09:16:28;;;;;;;82.90;50.88;;;;;;;-2.07;81.86;98718.94;10411599;28;20036;-57
2022/01/16 09:21:27;;;;;;;79.05;46.20;;;;;;;-1.81;81.39;98728.19;10399204;28;20064;-57
2022/01/16 09:26:27;;;;;;;73.20;43.80;;;;;;;-1.59;81.05;98716.81;10411771;28;20115;-57
2022/01/16 09:31:25;;;;;;;79.88;47.00;;;;;;;-1.34;81.07;98699.72;10407887;28;20068;-57
2022/01/16 09:36:25;;;;;;;78.00;47.92;;;;;;;-1.18;79.04;98698.13;10410671;28;20031;-57
2022/01/16 09:41:24;;;;;;;83.85;50.92;;;;;;;-1.07;78.88;98692.88;10407974;28;20147;-57
2022/01/16 09:46:23;;;;;;;;;;;;;;;-0.87;79.01;98681.28;10413887;28;20068;-57
2022/01/16 09:51:22;;;;;;;66.30;38.58;;;;;;;-0.77;77.93;98659.75;10415245;28;20037;-57
2022/01/16 09:56:22;;;;;;;82.53;46.88;;;;;;;-0.51;77.30;98655.28;10415883;28;20107;-57
2022/01/16 10:01:21;;;;;;;74.43;46.42;;;;;;;-0.41;77.07;98648.25;10418215;28;20543;-57
2022/01/16 10:06:24;;;;;;;79.65;48.22;;;;;;;-0.19;74.88;98636.69;10377513;28;20061;-57
2022/01/16 10:11:32;;;;;;;72.00;45.90;;;;;;;-0.01;76.25;98630.06;10377783;28;20795;-57
2022/01/16 10:16:35;;;;;;;68.95;41.97;;;;;;;0.12;75.54;98625.59;10389334;28;20076;-57
2022/01/16 10:21:39;;;;;;;63.78;39.42;;;;;;;0.20;74.70;98625.22;10393771;28;20071;-57
2022/01/16 10:26:38;;;;;;;53.53;32.50;;;;;;;0.24;73.30;98614.41;10417595;28;20055;-59
2022/01/16 10:31:37;;;;;;;51.40;30.80;;;;;;;0.43;72.01;98613.69;10417844;28;20120;-57
2022/01/16 10:36:38;;;;;;;47.33;30.23;;;;;;;0.63;71.95;98608.75;10418332;28;20103;-57
2022/01/16 10:41:38;;;;;;;50.17;30.95;;;;;;;0.76;71.77;98588.13;10414561;28;20507;-57
2022/01/16 10:46:37;;;;;;;52.70;32.17;;;;;;;0.97;71.33;98584.91;10416748;28;20052;-57
2022/01/16 10:51:37;;;;;;;52.28;34.40;;;;;;;1.16;70.93;98585.03;10399892;28;20116;-57
2022/01/16 10:56:36;;;;;;;55.70;36.30;;;;;;;1.33;71.35;98576.47;10405951;28;20075;-57
2022/01/16 11:01:35;;;;;;;54.78;34.97;;;;;;;1.48;70.71;98562.69;10414343;28;20107;-57
2022/01/16 11:06:34;;;;;;;51.45;32.85;;;;;;;1.63;68.41;98568.53;10417025;28;20112;-57
2022/01/16 11:11:33;;;;;;;55.33;34.72;;;;;;;1.70;68.57;98546.66;10416485;28;20036;-57
2022/01/16 11:16:32;;;;;;;48.17;30.60;;;;;;;1.90;68.53;98557.81;10411109;28;20061;-57
2022/01/16 11:21:34;;;;;;;;;;;;;;;2.11;66.85;98558.81;10415217;28;20064;-57
2022/01/16 11:26:33;;;;;;;49.47;27.33;;;;;;;2.29;65.54;98557.88;10414933;28;20368;-57
2022/01/16 11:31:32;;;;;;;42.28;26.75;;;;;;;2.29;66.43;98527.13;10415528;28;20083;-57
2022/01/16 11:36:32;;;;;;;44.80;29.08;;;;;;;2.32;65.40;98527.25;10415652;28;20828;-57
2022/01/16 11:41:35;;;;;;;43.40;26.58;;;;;;;2.57;65.92;98548.00;10409986;28;20115;-57
2022/01/16 11:46:40;;;;;;;39.33;26.67;;;;;;;2.62;65.55;98516.59;10415408;28;20072;-57
2022/01/16 11:51:48;;;;;;;52.95;31.70;;;;;;;2.83;64.58;98527.75;10413436;28;20205;-57
2022/01/16 11:57:05;;;;;;;45.72;28.95;;;;;;;2.96;65.40;98524.91;10413922;28;20064;-57
2022/01/16 12:02:07;;;;;;;44.08;28.30;;;;;;;3.13;63.86;98517.88;10406363;28;20083;-57
2022/01/16 12:07:12;;;;;;;41.83;26.35;;;;;;;3.25;63.99;98517.50;10394508;28;20559;-57
2022/01/16 12:12:14;;;;;;;41.97;26.00;;;;;;;3.33;63.25;98504.97;10397351;28;20064;-57
2022/01/16 12:17:29;;;;;;;40.67;26.85;;;;;;;3.54;64.24;98492.09;10371959;28;20053;-58
2022/01/16 12:22:43;;;;;;;41.13;26.23;;;;;;;3.72;64.51;98497.06;10383100;28;20484;-58
2022/01/16 12:27:45;;;;;;;35.50;23.25;;;;;;;3.81;64.18;98494.84;10373053;28;20071;-58
2022/01/16 12:32:58;;;;;;;43.53;25.50;;;;;;;3.96;63.96;98484.28;10373123;28;20516;-58
2022/01/16 12:37:57;;;;;;;37.45;24.58;;;;;;;4.07;62.79;98481.28;10398207;28;20056;-58
2022/01/16 12:42:57;;;;;;;45.65;29.85;;;;;;;4.17;61.64;98479.91;10413684;28;20079;-58
2022/01/16 12:47:57;;;;;;;39.85;24.50;;;;;;;4.26;61.93;98480.25;10409097;28;20075;-58
2022/01/16 12:52:56;;;;;;;33.55;23.60;;;;;;;4.37;62.03;98470.34;10383815;28;20064;-58
2022/01/16 12:58:13;;;;;;;38.30;25.52;;;;;;;4.38;60.26;98448.09;10395499;28;20028;-58
2022/01/16 13:03:26;;;;;;;42.53;25.35;;;;;;;4.47;58.87;98453.56;10413209;28;20467;-58
2022/01/16 13:08:25;;;;;;;33.55;23.65;;;;;;;4.51;59.52;98457.97;10409919;28;20067;-58
2022/01/16 13:13:32;;;;;;;39.85;25.90;;;;;;;4.52;58.85;98461.41;10383144;28;20065;-58
2022/01/16 13:18:31;;;;;;;47.75;32.58;;;;;;;4.45;59.50;98450.91;10387319;28;20542;-58
2022/01/16 13:23:30;;;;;;;55.50;36.42;;;;;;;4.37;58.57;98461.78;10417485;28;20627;-58
2022/01/16 13:28:29;;;;;;;55.15;36.67;;;;;;;4.54;58.88;98460.66;10419822;28;20965;-58
2022/01/16 13:33:29;;;;;;;81.55;51.60;;;;;;;4.65;58.79;98450.75;10414776;28;20556;-58
2022/01/16 13:38:29;;;;;;;80.32;53.65;;;;;;;4.75;59.44;98457.94;10385948;28;20069;-58
2022/01/16 13:43:30;;;;;;;88.78;55.22;;;;;;;4.83;58.89;98458.16;10426748;28;20088;-59
2022/01/16 13:48:29;;;;;;;89.22;55.25;;;;;;;4.72;57.92;98440.69;10403340;28;20064;-58
2022/01/16 13:53:34;;;;;;;;;;;;;;;4.74;57.33;98445.03;10420617;28;20075;-58
2022/01/16 13:58:43;;;;;;;78.32;53.30;;;;;;;4.67;58.29;98426.81;10418753;28;19951;-58
2022/01/16 14:04:03;;;;;;;60.85;41.38;;;;;;;4.71;58.59;98432.94;10418473;28;20071;-59
2022/01/16 14:09:05;;;;;;;66.20;43.58;;;;;;;4.76;57.88;98428.84;10419878;28;20064;-59
2022/01/16 14:14:05;;;;;;;69.65;44.40;;;;;;;4.75;58.38;98411.66;10386812;28;20065;-59
2022/01/16 14:24:09;;;;;;;77.70;48.30;;;;;;;4.70;57.89;98418.34;10411449;28;20531;-59
2022/01/16 14:29:08;;;;;;;80.03;49.70;;;;;;;4.55;58.05;98420.38;10415178;28;20507;-58
2022/01/16 14:34:07;;;;;;;81.82;52.58;;;;;;;4.39;58.32;98413.88;10413709;28;20049;-58
2022/01/16 14:39:07;;;;;;;90.90;55.70;;;;;;;4.24;58.21;98409.97;10403861;28;20065;-59
2022/01/16 14:44:06;;;;;;;84.53;52.38;;;;;;;4.02;58.93;98403.19;10416841;28;20916;-59
2022/01/16 14:49:05;;;;;;;88.95;54.13;;;;;;;3.85;59.21;98397.47;10416969;28;20519;-59
2022/01/16 14:54:06;;;;;;;78.10;48.60;;;;;;;3.64;59.35;98400.13;10417475;28;20060;-59
2022/01/16 14:59:07;;;;;;;85.38;54.08;;;;;;;3.37;59.47;98379.44;10416176;28;20083;-59
2022/01/16 15:04:07;;;;;;;93.00;57.20;;;;;;;3.13;59.74;98376.84;10389782;28;20071;-59
2022/01/16 15:09:06;;;;;;;;;;;;;;;2.87;60.71;98377.53;10409523;28;20063;-59
2022/01/16 15:14:06;;;;;;;105.00;59.03;;;;;;;2.59;60.85;98387.53;10389273;28;19944;-58
2022/01/16 15:19:13;;;;;;;90.18;55.72;;;;;;;2.40;60.65;98386.75;10375377;28;20302;-59
2022/01/16 15:24:13;;;;;;;94.70;55.97;;;;;;;2.11;61.48;98388.94;10393102;28;20067;-58
2022/01/16 15:29:13;;;;;;;82.07;49.05;;;;;;;1.91;61.23;98383.00;10413263;28;20080;-59
2022/01/16 15:34:12;;;;;;;71.88;43.58;;;;;;;1.73;61.31;98383.91;10414280;28;20116;-59
2022/01/16 15:39:11;;;;;;;81.68;51.10;;;;;;;1.57;61.81;98388.31;10412822;28;20119;-58
2022/01/16 15:44:10;;;;;;;84.05;48.83;;;;;;;1.36;62.45;98375.44;10381638;28;20025;-59
2022/01/16 15:49:09;;;;;;;139.52;84.75;;;;;;;1.20;62.68;98363.63;10375607;28;20124;-59
2022/01/16 15:54:08;;;;;;;138.73;92.75;;;;;;;1.02;63.40;98376.44;10381634;28;20076;-59
2022/01/16 15:59:07;;;;;;;165.80;105.35;;;;;;;0.82;64.22;98375.50;10406566;28;20034;-59
2022/01/16 16:04:06;;;;;;;166.65;107.57;;;;;;;0.53;65.72;98369.91;10413579;28;20060;-58
2022/01/16 16:09:05;;;;;;;161.88;102.38;;;;;;;0.36;66.47;98374.19;10410636;28;20091;-58
2022/01/16 16:14:09;;;;;;;195.82;122.20;;;;;;;0.09;67.82;98373.69;10413521;28;20009;-58
2022/01/16 16:19:08;;;;;;;162.65;98.03;;;;;;;-0.12;67.87;98378.59;10412450;28;20052;-58
2022/01/16 16:24:07;;;;;;;136.27;84.30;;;;;;;-0.21;68.41;98375.56;10406430;28;20109;-58
2022/01/16 16:29:06;;;;;;;150.05;84.97;;;;;;;-0.30;68.81;98377.63;10410317;28;20063;-58
2022/01/16 16:34:05;;;;;;;140.57;87.22;;;;;;;-0.39;68.95;98371.28;10409172;28;20064;-58
2022/01/16 16:39:06;;;;;;;129.75;80.43;;;;;;;-0.45;68.97;98365.84;10407738;28;20513;-58
2022/01/16 16:44:07;;;;;;;92.95;57.50;;;;;;;-0.55;69.07;98368.75;10406951;28;20098;-58
2022/01/16 16:49:07;;;;;;;146.10;80.78;;;;;;;-0.61;69.57;98365.84;10409660;28;20072;-58
2022/01/16 16:54:06;;;;;;;134.40;81.10;;;;;;;-0.70;69.87;98360.28;10408457;28;20056;-58
2022/01/16 16:59:05;;;;;;;155.40;84.90;;;;;;;-0.74;70.01;98356.69;10415839;28;20068;-58
2022/01/16 17:04:04;;;;;;;152.15;89.82;;;;;;;-0.83;70.42;98363.84;10412901;28;20044;-58
2022/01/16 17:09:06;;;;;;;200.93;121.35;;;;;;;-0.95;70.28;98358.97;10378644;28;20518;-58
2022/01/16 17:14:05;;;;;;;238.07;143.43;;;;;;;-1.07;71.13;98365.94;10409490;28;20522;-58
2022/01/16 17:19:09;;;;;;;248.15;144.88;;;;;;;-1.14;71.31;98358.75;10416831;28;20060;-58
2022/01/16 17:24:08;;;;;;;217.52;131.27;;;;;;;-1.26;71.14;98371.69;10411288;28;20116;-58
2022/01/16 17:29:07;;;;;;;227.10;130.50;;;;;;;-1.30;71.33;98368.13;10417784;28;20032;-58
2022/01/16 17:34:06;;;;;;;81.70;47.83;;;;;;;-1.44;71.36;98361.41;10412893;28;20520;-58
2022/01/16 17:39:05;;;;;;;98.57;54.20;;;;;;;-1.39;70.53;98351.47;10417915;28;20512;-58
2022/01/16 17:44:04;;;;;;;151.30;88.75;;;;;;;-1.41;70.43;98359.00;10415170;28;20039;-58
2022/01/16 17:49:04;;;;;;;;;;;;;;;-1.75;71.00;98316.44;10418417;28;20526;-58
2022/01/16 17:54:03;;;;;;;282.90;152.68;;;;;;;-1.56;71.58;98353.06;10390452;28;19967;-58
2022/01/16 17:59:04;;;;;;;273.08;152.55;;;;;;;-1.59;71.82;98358.84;10376039;28;20833;-58
2022/01/16 18:04:04;;;;;;;347.60;201.27;;;;;;;-1.77;72.82;98358.72;10406712;28;20127;-58
2022/01/16 18:09:03;;;;;;;475.73;286.17;;;;;;;-1.75;73.24;98362.22;10415891;28;20056;-59
2022/01/16 18:14:03;;;;;;;355.27;217.90;;;;;;;-1.79;72.88;98365.38;10397788;28;20056;-58
2022/01/16 18:19:02;;;;;;;413.02;245.90;;;;;;;-1.81;72.79;98366.06;10415958;28;20056;-59
2022/01/16 18:24:01;;;;;;;312.98;188.38;;;;;;;-1.80;72.60;98363.59;10414418;28;20056;-58
2022/01/16 18:29:01;;;;;;;352.02;217.55;;;;;;;-1.92;73.68;98351.06;10412739;28;20483;-59
2022/01/16 18:33:59;;;;;;;363.75;215.70;;;;;;;-1.99;73.95;98350.63;10415626;28;20095;-58
2022/01/16 18:38:58;;;;;;;372.88;223.18;;;;;;;-2.08;73.77;98344.25;10413252;28;20407;-58
2022/01/16 18:43:57;;;;;;;409.52;254.40;;;;;;;-2.24;75.02;98351.75;10414046;28;20028;-58
2022/01/16 18:48:56;;;;;;;450.17;275.83;;;;;;;-2.36;75.28;98345.94;10410792;28;20036;-58
2022/01/16 18:53:57;;;;;;;430.23;259.38;;;;;;;-2.41;76.13;98360.91;10411973;28;20094;-60
2022/01/16 18:58:56;;;;;;;411.05;252.93;;;;;;;-2.35;76.31;98350.25;10412523;28;20499;-58
2022/01/16 19:03:55;;;;;;;399.45;246.77;;;;;;;-2.47;76.45;98339.38;10414507;28;20067;-58
2022/01/16 19:08:56;;;;;;;428.73;248.65;;;;;;;-2.60;76.14;98335.19;10409948;28;20064;-60
2022/01/16 19:13:55;;;;;;;408.42;243.48;;;;;;;-2.50;75.95;98346.03;10383055;28;20064;-58
2022/01/16 19:18:54;;;;;;;386.42;236.85;;;;;;;-2.45;76.00;98347.94;10387462;28;20071;-58
2022/01/16 19:23:53;;;;;;;;;;;;;;;-2.47;76.05;98352.06;10409605;28;20063;-58
2022/01/16 19:28:52;;;;;;;372.58;221.57;;;;;;;-2.53;76.30;98343.28;10407900;28;20012;-58
2022/01/16 19:33:51;;;;;;;374.10;227.27;;;;;;;-2.56;76.44;98329.53;10405172;28;20064;-58
2022/01/16 19:38:50;;;;;;;367.35;221.68;;;;;;;-2.61;76.41;98329.25;10382862;28;20068;-58
2022/01/16 19:43:49;;;;;;;;;;;;;;;-2.64;76.89;98325.63;10408553;28;20076;-58
2022/01/16 19:48:48;;;;;;;365.05;216.57;;;;;;;-2.66;76.89;98328.09;10412299;28;19919;-58
2022/01/16 19:53:47;;;;;;;;;;;;;;;-2.69;77.16;98332.97;10389586;28;20063;-58
2022/01/16 19:58:46;;;;;;;401.08;244.75;;;;;;;-2.84;77.85;98327.00;10402153;28;19913;-58
2022/01/16 20:03:45;;;;;;;433.23;261.10;;;;;;;-2.90;78.01;98322.41;10409910;28;20045;-58
2022/01/16 20:08:44;;;;;;;452.08;280.08;;;;;;;-2.92;77.95;98323.97;10409739;28;20489;-58
2022/01/16 20:13:43;;;;;;;420.55;260.40;;;;;;;-2.92;77.97;98326.50;10407597;28;20075;-58
2022/01/16 20:18:42;;;;;;;438.90;261.42;;;;;;;-2.97;78.32;98305.03;10406656;28;20477;-58
2022/01/16 20:23:41;;;;;;;454.30;275.35;;;;;;;-2.95;78.33;98301.81;10409819;28;20032;-58
2022/01/16 20:28:40;;;;;;;420.10;249.45;;;;;;;-3.04;78.68;98297.84;10401845;28;20072;-58
2022/01/16 20:33:39;;;;;;;;;;;;;;;-3.06;78.62;98290.16;10411500;28;20072;-58
2022/01/16 20:38:38;;;;;;;488.35;291.95;;;;;;;-3.07;78.80;98277.34;10410428;28;19930;-58
2022/01/16 20:43:37;;;;;;;;;;;;;;;-3.15;78.79;98269.28;10408853;28;20181;-58
2022/01/16 20:48:40;;;;;;;546.25;337.38;;;;;;;-3.20;78.89;98263.94;10410297;28;19908;-57
2022/01/16 20:53:39;;;;;;;548.63;347.35;;;;;;;-3.47;79.41;98245.34;10405691;28;20060;-57
2022/01/16 20:58:38;;;;;;;400.98;238.95;;;;;;;-3.49;79.77;98251.97;10409552;28;20090;-57
2022/01/16 21:03:37;;;;;;;457.10;262.73;;;;;;;-3.39;79.33;98251.78;10395038;28;20221;-57
2022/01/16 21:08:36;;;;;;;535.65;332.17;;;;;;;-3.41;79.53;98258.41;10369847;28;20060;-57
2022/01/16 21:13:35;;;;;;;559.67;346.35;;;;;;;-3.59;79.73;98237.00;10375201;28;20041;-57
2022/01/16 21:18:35;;;;;;;561.95;348.50;;;;;;;-3.50;79.70;98250.25;10387279;28;20574;-57
2022/01/16 21:23:36;;;;;;;561.75;349.30;;;;;;;-3.53;80.23;98250.03;10380334;28;20061;-57
2022/01/16 21:28:35;;;;;;;540.60;334.70;;;;;;;-3.52;80.03;98248.41;10398896;28;20128;-57
2022/01/16 21:33:36;;;;;;;483.08;288.08;;;;;;;-3.52;80.01;98251.81;10403183;28;20527;-57
2022/01/16 21:38:35;;;;;;;508.30;304.45;;;;;;;-3.56;80.15;98248.19;10406465;28;20060;-57
2022/01/16 21:43:34;;;;;;;479.55;285.92;;;;;;;-3.61;80.75;98249.56;10403352;28;20101;-57
2022/01/16 21:48:35;;;;;;;419.50;244.40;;;;;;;-3.63;80.68;98248.59;10414436;28;20089;-57
2022/01/16 21:53:35;;;;;;;420.45;237.57;;;;;;;-3.67;80.52;98248.31;10414847;28;20072;-57
2022/01/16 21:58:34;;;;;;;454.20;264.13;;;;;;;-3.71;80.37;98242.19;10415818;28;20078;-57
2022/01/16 22:03:34;;;;;;;458.50;266.30;;;;;;;-3.80;80.07;98239.06;10416334;28;20060;-57
2022/01/16 22:08:34;;;;;;;475.90;278.35;;;;;;;-3.80;80.91;98229.78;10417828;28;20075;-57
2022/01/16 22:13:33;;;;;;;443.90;259.85;;;;;;;-3.81;80.47;98238.19;10398519;28;20132;-57
2022/01/16 22:18:32;;;;;;;417.98;235.30;;;;;;;-3.79;80.66;98223.97;10412568;28;20036;-57
2022/01/16 22:23:32;;;;;;;;;;;;;;;-3.81;79.91;98217.91;10410851;28;20072;-57
2022/01/16 22:28:32;;;;;;;207.73;115.32;;;;;;;-3.78;79.89;98197.81;10415118;28;19943;-57
2022/01/16 22:33:31;;;;;;;170.45;95.82;;;;;;;-3.83;79.98;98178.03;10413127;28;20075;-57
2022/01/16 22:38:29;;;;;;;163.98;92.05;;;;;;;-3.88;79.14;98170.13;10415032;28;20115;-57
2022/01/16 22:43:29;;;;;;;146.63;80.22;;;;;;;-3.74;79.12;98177.69;10414618;28;20036;-57
2022/01/16 22:48:29;;;;;;;148.15;83.47;;;;;;;-3.78;78.90;98172.44;10411959;28;20064;-57
2022/01/16 22:53:28;;;;;;;137.80;75.35;;;;;;;-3.78;78.49;98158.91;10387816;28;20063;-57
2022/01/16 22:58:27;;;;;;;137.93;74.45;;;;;;;-3.90;78.62;98161.56;10409005;28;20039;-57
2022/01/16 23:03:26;;;;;;;125.88;69.63;;;;;;;-3.92;77.95;98136.91;10401464;28;20047;-57
2022/01/16 23:08:25;;;;;;;139.30;71.45;;;;;;;-3.90;78.27;98145.44;10400109;28;20381;-57
2022/01/16 23:13:25;;;;;;;135.93;71.60;;;;;;;-3.82;78.12;98132.47;10374890;28;20072;-57
2022/01/16 23:18:24;;;;;;;;;;;;;;;-3.77;77.90;98130.22;10374623;28;20508;-57
2022/01/16 23:23:24;;;;;;;124.50;67.63;;;;;;;-3.80;77.26;98132.56;10410769;28;20391;-57